createdAt,value
2022-08-28T00:00:43.947Z,100.00
2022-08-28T00:03:13.694Z,100.00
2022-08-28T00:05:43.740Z,100.00
2022-08-28T00:08:14.795Z,100.00
2022-08-28T00:10:43.586Z,100.00
2022-08-28T00:13:19.106Z,100.00
2022-08-28T00:15:51.441Z,100.00
2022-08-28T00:18:21.000Z,100.00
2022-08-28T00:20:51.582Z,100.00
2022-08-28T00:23:21.052Z,100.00
2022-08-28T00:25:49.766Z,100.00
2022-08-28T00:28:24.344Z,100.00
2022-08-28T00:30:59.243Z,100.00
2022-08-28T00:33:34.733Z,100.00
2022-08-28T00:36:05.212Z,100.00
2022-08-28T00:38:33.336Z,100.00
2022-08-28T00:41:04.948Z,100.00
2022-08-28T00:43:44.666Z,100.00
2022-08-28T00:46:21.245Z,100.00
2022-08-28T00:48:50.781Z,100.00
2022-08-28T00:51:39.832Z,100.00
2022-08-28T00:54:09.674Z,100.00
2022-08-28T00:56:40.857Z,100.00
2022-08-28T00:59:15.765Z,100.00
2022-08-28T01:01:47.374Z,100.00
2022-08-28T01:04:20.357Z,100.00
2022-08-28T01:06:54.112Z,100.00
2022-08-28T01:09:27.555Z,100.00
2022-08-28T01:12:03.340Z,100.00
2022-08-28T01:14:34.165Z,100.00
2022-08-28T01:17:03.146Z,100.00
2022-08-28T01:19:46.817Z,100.00
2022-08-28T01:22:31.131Z,100.00
2022-08-28T01:25:03.805Z,100.00
2022-08-28T01:27:31.997Z,100.00
2022-08-28T01:30:00.128Z,100.00
2022-08-28T01:32:53.294Z,100.00
2022-08-28T01:35:33.089Z,100.00
2022-08-28T01:38:03.914Z,100.00
2022-08-28T01:40:38.506Z,100.00
2022-08-28T01:43:21.355Z,100.00
2022-08-28T01:45:54.025Z,100.00
2022-08-28T01:48:26.949Z,100.00
2022-08-28T01:50:56.167Z,100.00
2022-08-28T01:53:32.606Z,100.00
2022-08-28T01:56:04.982Z,100.00
2022-08-28T01:58:37.948Z,100.00
2022-08-28T02:01:18.913Z,100.00
2022-08-28T02:03:48.019Z,100.00
2022-08-28T02:06:17.956Z,100.00
2022-08-28T02:08:47.089Z,100.00
2022-08-28T02:11:16.739Z,100.00
2022-08-28T02:13:44.797Z,100.00
2022-08-28T02:16:13.625Z,100.00
2022-08-28T02:18:42.102Z,100.00
2022-08-28T02:21:12.575Z,100.00
2022-08-28T02:23:43.512Z,100.00
2022-08-28T02:26:13.560Z,100.00
2022-08-28T02:28:42.525Z,100.00
2022-08-28T02:31:11.946Z,100.00
2022-08-28T02:33:43.774Z,100.00
2022-08-28T02:36:16.104Z,100.00
2022-08-28T02:38:47.656Z,100.00
2022-08-28T02:41:15.904Z,100.00
2022-08-28T02:43:44.228Z,100.00
2022-08-28T02:46:12.659Z,100.00
2022-08-28T02:48:40.915Z,100.00
2022-08-28T02:51:14.232Z,100.00
2022-08-28T02:53:43.567Z,100.00
2022-08-28T02:56:12.815Z,100.00
2022-08-28T02:58:41.317Z,100.00
2022-08-28T03:01:12.541Z,100.00
2022-08-28T03:03:42.711Z,100.00
2022-08-28T03:06:15.336Z,100.00
2022-08-28T03:08:44.747Z,100.00
2022-08-28T03:11:13.037Z,100.00
2022-08-28T03:13:42.462Z,100.00
2022-08-28T03:16:10.796Z,100.00
2022-08-28T03:18:39.768Z,100.00
2022-08-28T03:21:09.335Z,100.00
2022-08-28T03:23:38.829Z,100.00
2022-08-28T03:26:16.070Z,100.00
2022-08-28T03:28:52.265Z,100.00
2022-08-28T03:31:24.847Z,100.00
2022-08-28T03:33:54.808Z,100.00
2022-08-28T03:36:28.284Z,100.00
2022-08-28T03:39:00.937Z,100.00
2022-08-28T03:41:31.592Z,100.00
2022-08-28T03:44:01.502Z,100.00
2022-08-28T03:46:35.264Z,100.00
2022-08-28T03:49:05.146Z,100.00
2022-08-28T03:51:35.070Z,100.00
2022-08-28T03:54:04.981Z,100.00
2022-08-28T03:56:33.333Z,100.00
2022-08-28T03:59:05.669Z,100.00
2022-08-28T04:01:35.213Z,100.00
2022-08-28T04:04:04.484Z,100.00
2022-08-28T04:06:32.781Z,100.00
2022-08-28T04:09:02.556Z,100.00
2022-08-28T04:11:30.528Z,100.00
2022-08-28T04:13:58.751Z,100.00
2022-08-28T04:16:27.358Z,100.00
2022-08-28T04:18:55.573Z,100.00
2022-08-28T04:21:26.291Z,100.00
2022-08-28T04:23:56.180Z,100.00
2022-08-28T04:26:27.337Z,100.00
2022-08-28T04:28:56.027Z,100.00
2022-08-28T04:31:32.427Z,100.00
2022-08-28T04:34:03.117Z,100.00
2022-08-28T04:36:34.869Z,100.00
2022-08-28T04:39:06.293Z,100.00
2022-08-28T04:41:34.818Z,100.00
2022-08-28T04:44:03.790Z,100.00
2022-08-28T04:46:32.063Z,100.00
2022-08-28T04:49:00.962Z,100.00
2022-08-28T04:51:29.523Z,100.00
2022-08-28T04:53:59.092Z,100.00
2022-08-28T04:56:27.419Z,100.00
2022-08-28T04:58:55.751Z,100.00
2022-08-28T05:01:25.419Z,100.00
2022-08-28T05:04:02.431Z,100.00
2022-08-28T05:06:33.227Z,100.00
2022-08-28T05:09:03.908Z,100.00
2022-08-28T05:11:34.058Z,100.00
2022-08-28T05:14:15.878Z,100.00
2022-08-28T05:16:51.449Z,100.00
2022-08-28T05:19:21.787Z,100.00
2022-08-28T05:21:50.243Z,100.00
2022-08-28T05:24:18.621Z,100.00
2022-08-28T05:26:48.223Z,100.00
2022-08-28T05:29:18.123Z,100.00
2022-08-28T05:31:46.600Z,100.00
2022-08-28T05:34:15.443Z,100.00
2022-08-28T05:36:44.320Z,100.00
2022-08-28T05:39:13.211Z,100.00
2022-08-28T05:41:44.821Z,100.00
2022-08-28T05:44:15.413Z,100.00
2022-08-28T05:46:47.965Z,100.00
2022-08-28T05:49:19.580Z,100.00
2022-08-28T05:51:49.637Z,100.00
2022-08-28T05:54:18.410Z,100.00
2022-08-28T05:56:47.413Z,100.00
2022-08-28T05:59:16.672Z,100.00
2022-08-28T06:01:49.185Z,100.00
2022-08-28T06:04:26.251Z,100.00
2022-08-28T06:06:55.317Z,100.00
2022-08-28T06:09:29.696Z,100.00
2022-08-28T06:12:01.862Z,99.72
2022-08-28T06:14:33.785Z,96.71
2022-08-28T06:17:03.273Z,89.72
2022-08-28T06:19:39.414Z,83.51
2022-08-28T06:22:12.385Z,80.53
2022-08-28T06:24:41.036Z,78.76
2022-08-28T06:27:09.173Z,78.27
2022-08-28T06:29:37.488Z,77.15
2022-08-28T06:32:06.269Z,75.45
2022-08-28T06:34:34.589Z,72.88
2022-08-28T06:37:02.867Z,72.83
2022-08-28T06:39:31.526Z,70.76
2022-08-28T06:42:00.131Z,71.91
2022-08-28T06:44:32.533Z,69.35
2022-08-28T06:47:00.819Z,70.53
2022-08-28T06:49:29.057Z,67.87
2022-08-28T06:51:57.579Z,68.57
2022-08-28T06:54:55.606Z,69.23
2022-08-28T06:57:26.757Z,70.26
2022-08-28T06:59:58.874Z,68.48
2022-08-28T07:02:28.432Z,69.41
2022-08-28T07:04:56.940Z,67.21
2022-08-28T07:07:31.573Z,64.92
2022-08-28T07:10:00.942Z,66.18
2022-08-28T07:12:29.574Z,65.36
2022-08-28T07:14:58.726Z,65.10
2022-08-28T07:17:27.333Z,64.02
2022-08-28T07:19:56.006Z,62.76
2022-08-28T07:22:26.890Z,62.05
2022-08-28T07:24:56.084Z,60.06
2022-08-28T07:27:25.483Z,59.65
2022-08-28T07:29:53.710Z,57.10
2022-08-28T07:32:22.448Z,60.43
2022-08-28T07:34:50.945Z,58.80
2022-08-28T07:37:19.167Z,57.26
2022-08-28T07:39:47.556Z,55.70
2022-08-28T07:42:35.863Z,50.44
2022-08-28T07:45:05.221Z,52.46
2022-08-28T07:47:33.398Z,53.99
2022-08-28T07:50:02.608Z,51.74
2022-08-28T07:52:30.922Z,51.27
2022-08-28T07:54:59.737Z,52.97
2022-08-28T07:57:28.128Z,52.10
2022-08-28T07:59:57.059Z,51.61
2022-08-28T08:02:25.538Z,51.49
2022-08-28T08:04:53.911Z,51.41
2022-08-28T08:07:22.379Z,50.25
2022-08-28T08:09:50.469Z,50.03
2022-08-28T08:12:18.810Z,49.48
2022-08-28T08:14:49.851Z,47.88
2022-08-28T08:17:17.701Z,48.97
2022-08-28T08:19:45.896Z,49.33
2022-08-28T08:22:14.347Z,46.77
2022-08-28T08:24:43.672Z,46.54
2022-08-28T08:27:11.914Z,47.33
2022-08-28T08:29:40.336Z,45.93
2022-08-28T08:32:11.261Z,46.07
2022-08-28T08:34:43.184Z,45.34
2022-08-28T08:37:13.548Z,45.72
2022-08-28T08:39:43.352Z,44.50
2022-08-28T08:42:26.337Z,44.18
2022-08-28T08:44:57.774Z,44.09
2022-08-28T08:47:48.941Z,45.53
2022-08-28T08:50:26.407Z,44.53
2022-08-28T08:53:06.998Z,44.01
2022-08-28T08:55:43.189Z,45.22
2022-08-28T08:58:52.706Z,43.67
2022-08-28T09:01:37.235Z,43.98
2022-08-28T09:04:49.069Z,41.97
2022-08-28T09:07:24.357Z,42.13
2022-08-28T09:09:55.712Z,43.21
2022-08-28T09:12:29.751Z,42.78
2022-08-28T09:15:40.313Z,42.36
2022-08-28T09:18:27.361Z,42.64
2022-08-28T09:20:59.227Z,42.36
2022-08-28T09:23:30.026Z,43.52
2022-08-28T09:26:01.618Z,43.46
2022-08-28T09:28:41.075Z,44.09
2022-08-28T09:31:19.610Z,43.63
2022-08-28T09:33:52.210Z,44.26
2022-08-28T09:36:37.998Z,42.85
2022-08-28T09:39:17.633Z,43.38
2022-08-28T09:42:09.314Z,43.83
2022-08-28T09:45:18.800Z,42.47
2022-08-28T09:47:58.554Z,42.52
2022-08-28T09:50:42.641Z,43.18
2022-08-28T09:53:11.784Z,42.34
2022-08-28T09:56:16.429Z,42.17
2022-08-28T09:58:51.761Z,42.59
2022-08-28T10:01:38.111Z,42.54
2022-08-28T10:04:27.794Z,43.03
2022-08-28T10:06:58.853Z,41.95
2022-08-28T10:09:59.021Z,41.96
2022-08-28T10:13:10.990Z,42.39
2022-08-28T10:16:05.148Z,41.79
2022-08-28T10:18:51.818Z,40.70
2022-08-28T10:21:45.099Z,40.45
2022-08-28T10:24:51.753Z,40.54
2022-08-28T10:27:42.874Z,40.40
2022-08-28T10:30:19.525Z,40.83
2022-08-28T10:33:06.091Z,41.20
2022-08-28T10:36:02.216Z,41.18
2022-08-28T10:39:27.589Z,40.79
2022-08-28T10:42:04.865Z,40.86
2022-08-28T10:44:55.864Z,40.76
2022-08-28T10:47:28.633Z,39.87
2022-08-28T10:50:02.384Z,39.67
2022-08-28T10:52:46.824Z,39.51
2022-08-28T10:55:24.749Z,39.50
2022-08-28T10:58:06.262Z,39.70
2022-08-28T11:01:07.546Z,39.34
2022-08-28T11:03:46.912Z,38.65
2022-08-28T11:06:25.415Z,38.98
2022-08-28T11:09:20.913Z,39.37
2022-08-28T11:11:51.212Z,39.62
2022-08-28T11:14:46.369Z,39.50
2022-08-28T11:17:29.148Z,39.74
2022-08-28T11:20:25.072Z,41.35
2022-08-28T11:23:14.170Z,40.30
2022-08-28T11:25:54.865Z,40.46
2022-08-28T11:28:27.775Z,40.68
2022-08-28T11:31:04.404Z,40.73
2022-08-28T11:33:42.490Z,39.72
2022-08-28T11:36:32.839Z,39.44
2022-08-28T11:39:21.182Z,38.94
2022-08-28T11:42:11.344Z,37.89
2022-08-28T11:44:44.230Z,37.70
2022-08-28T11:47:40.396Z,38.22
2022-08-28T11:50:24.366Z,38.53
2022-08-28T11:53:27.449Z,39.36
2022-08-28T11:56:31.094Z,39.49
2022-08-28T11:59:34.884Z,39.61
2022-08-28T12:02:41.128Z,39.58
2022-08-28T12:05:16.893Z,40.01
2022-08-28T12:07:51.770Z,40.91
2022-08-28T12:10:27.574Z,41.59
2022-08-28T12:13:02.331Z,41.12
2022-08-28T12:15:31.203Z,40.64
2022-08-28T12:18:13.696Z,39.40
2022-08-28T12:20:50.993Z,39.88
2022-08-28T12:23:44.050Z,39.30
2022-08-28T12:26:26.588Z,39.51
2022-08-28T12:29:38.882Z,39.22
2022-08-28T12:32:56.224Z,38.55
2022-08-28T12:35:30.069Z,39.08
2022-08-28T12:38:05.100Z,40.16
2022-08-28T12:40:53.221Z,40.83
2022-08-28T12:43:41.657Z,41.24
2022-08-28T12:46:31.453Z,40.24
2022-08-28T12:49:03.650Z,39.64
2022-08-28T12:51:38.759Z,39.64
2022-08-28T12:54:09.097Z,38.89
2022-08-28T12:56:41.069Z,39.08
2022-08-28T12:59:41.222Z,39.43
2022-08-28T13:02:50.882Z,38.71
2022-08-28T13:05:36.484Z,38.46
2022-08-28T13:08:10.063Z,38.78
2022-08-28T13:10:49.895Z,38.77
2022-08-28T13:13:37.372Z,38.27
2022-08-28T13:16:11.255Z,38.05
2022-08-28T13:18:51.735Z,38.72
2022-08-28T13:21:32.482Z,38.69
2022-08-28T13:24:22.446Z,39.55
2022-08-28T13:27:17.506Z,39.00
2022-08-28T13:30:31.469Z,38.78
2022-08-28T13:33:27.400Z,38.60
2022-08-28T13:35:55.729Z,38.42
2022-08-28T13:38:25.419Z,38.26
2022-08-28T13:40:59.695Z,38.07
2022-08-28T13:43:42.910Z,38.26
2022-08-28T13:46:11.613Z,38.23
2022-08-28T13:48:42.469Z,38.74
2022-08-28T13:51:14.274Z,39.39
2022-08-28T13:53:50.798Z,39.90
2022-08-28T13:56:21.972Z,39.54
2022-08-28T13:58:57.952Z,39.83
2022-08-28T14:01:46.891Z,39.39
2022-08-28T14:04:15.043Z,39.01
2022-08-28T14:06:44.526Z,38.99
2022-08-28T14:09:17.756Z,40.61
2022-08-28T14:11:51.081Z,40.99
2022-08-28T14:14:19.395Z,41.10
2022-08-28T14:16:50.380Z,41.04
2022-08-28T14:19:18.565Z,42.41
2022-08-28T14:21:47.248Z,42.81
2022-08-28T14:24:15.579Z,41.58
2022-08-28T14:26:45.736Z,41.48
2022-08-28T14:29:17.617Z,40.33
2022-08-28T14:31:46.928Z,40.10
2022-08-28T14:34:21.186Z,41.49
2022-08-28T14:36:51.192Z,42.73
2022-08-28T14:39:19.292Z,42.52
2022-08-28T14:41:50.039Z,42.58
2022-08-28T14:44:20.712Z,42.69
2022-08-28T14:46:50.350Z,42.75
2022-08-28T14:49:20.415Z,43.48
2022-08-28T14:51:50.167Z,43.98
2022-08-28T14:54:21.459Z,43.98
2022-08-28T14:56:50.910Z,44.24
2022-08-28T14:59:24.777Z,44.84
2022-08-28T15:01:55.779Z,45.20
2022-08-28T15:04:26.683Z,46.04
2022-08-28T15:06:59.941Z,46.41
2022-08-28T15:09:28.973Z,46.31
2022-08-28T15:11:57.015Z,46.72
2022-08-28T15:14:25.960Z,47.48
2022-08-28T15:16:54.228Z,47.65
2022-08-28T15:19:23.485Z,48.28
2022-08-28T15:21:55.734Z,49.19
2022-08-28T15:24:31.501Z,48.96
2022-08-28T15:26:59.972Z,49.19
2022-08-28T15:29:30.091Z,50.06
2022-08-28T15:32:00.767Z,50.02
2022-08-28T15:34:29.679Z,50.71
2022-08-28T15:37:00.710Z,52.04
2022-08-28T15:39:50.413Z,52.93
2022-08-28T15:42:18.527Z,52.70
2022-08-28T15:44:47.026Z,53.56
2022-08-28T15:47:16.580Z,53.59
2022-08-28T15:49:49.712Z,53.58
2022-08-28T15:52:19.599Z,53.65
2022-08-28T15:54:49.763Z,53.98
2022-08-28T15:57:18.787Z,54.47
2022-08-28T15:59:49.422Z,54.93
2022-08-28T16:02:22.428Z,54.60
2022-08-28T16:04:51.639Z,55.28
2022-08-28T16:07:22.091Z,55.83
2022-08-28T16:09:50.700Z,55.48
2022-08-28T16:12:19.685Z,56.03
2022-08-28T16:14:47.755Z,56.66
2022-08-28T16:17:15.909Z,57.10
2022-08-28T16:19:45.256Z,57.58
2022-08-28T16:22:17.246Z,58.42
2022-08-28T16:24:46.825Z,58.94
2022-08-28T16:27:15.872Z,59.77
2022-08-28T16:29:45.490Z,59.79
2022-08-28T16:32:14.153Z,60.22
2022-08-28T16:34:44.807Z,60.86
2022-08-28T16:37:13.458Z,61.47
2022-08-28T16:39:46.886Z,62.10
2022-08-28T16:42:15.618Z,62.58
2022-08-28T16:44:43.804Z,63.26
2022-08-28T16:47:12.119Z,63.81
2022-08-28T16:49:40.908Z,64.33
2022-08-28T16:52:08.922Z,64.86
2022-08-28T16:54:37.058Z,64.98
2022-08-28T16:57:13.513Z,66.28
2022-08-28T16:59:41.932Z,67.33
2022-08-28T17:02:10.306Z,67.26
2022-08-28T17:04:42.035Z,67.36
2022-08-28T17:07:10.524Z,67.99
2022-08-28T17:09:38.880Z,68.55
2022-08-28T17:12:07.467Z,68.71
2022-08-28T17:14:36.208Z,69.88
2022-08-28T17:17:04.820Z,70.93
2022-08-28T17:19:34.296Z,70.95
2022-08-28T17:22:21.029Z,71.32
2022-08-28T17:24:52.650Z,71.42
2022-08-28T17:27:22.269Z,72.16
2022-08-28T17:29:51.091Z,72.67
2022-08-28T17:32:20.384Z,73.11
2022-08-28T17:34:48.594Z,75.80
2022-08-28T17:37:17.306Z,77.46
2022-08-28T17:39:45.892Z,78.18
2022-08-28T17:42:14.199Z,80.41
2022-08-28T17:44:43.099Z,78.90
2022-08-28T17:47:12.290Z,78.37
2022-08-28T17:49:41.010Z,78.83
2022-08-28T17:52:09.040Z,79.41
2022-08-28T17:54:39.181Z,80.46
2022-08-28T17:57:08.374Z,82.26
2022-08-28T17:59:36.745Z,85.99
2022-08-28T18:02:05.194Z,86.33
2022-08-28T18:04:33.563Z,84.01
2022-08-28T18:07:02.019Z,84.22
2022-08-28T18:09:30.381Z,83.89
2022-08-28T18:11:59.257Z,85.48
2022-08-28T18:14:27.802Z,85.51
2022-08-28T18:16:56.811Z,86.38
2022-08-28T18:19:24.961Z,87.37
2022-08-28T18:21:53.122Z,88.33
2022-08-28T18:24:21.400Z,88.55
2022-08-28T18:26:49.747Z,89.47
2022-08-28T18:29:17.972Z,90.89
2022-08-28T18:31:46.764Z,91.28
2022-08-28T18:34:15.370Z,93.00
2022-08-28T18:36:44.187Z,94.71
2022-08-28T18:39:13.080Z,96.65
2022-08-28T18:41:43.755Z,99.37
2022-08-28T18:44:16.003Z,100.00
2022-08-28T18:46:44.414Z,100.00
2022-08-28T18:49:13.317Z,100.00
2022-08-28T18:51:44.309Z,100.00
2022-08-28T18:54:16.820Z,100.00
2022-08-28T18:56:49.034Z,100.00
2022-08-28T18:59:19.233Z,100.00
2022-08-28T19:01:47.640Z,100.00
2022-08-28T19:04:15.986Z,100.00
2022-08-28T19:06:45.213Z,100.00
2022-08-28T19:09:20.641Z,100.00
2022-08-28T19:11:49.406Z,100.00
2022-08-28T19:14:18.256Z,100.00
2022-08-28T19:16:46.908Z,100.00
2022-08-28T19:19:15.651Z,100.00
2022-08-28T19:21:44.731Z,100.00
2022-08-28T19:24:16.613Z,100.00
2022-08-28T19:26:47.364Z,100.00
2022-08-28T19:29:17.608Z,100.00
2022-08-28T19:31:46.456Z,100.00
2022-08-28T19:34:15.258Z,100.00
2022-08-28T19:36:43.791Z,100.00
2022-08-28T19:39:12.882Z,100.00
2022-08-28T19:41:41.776Z,100.00
2022-08-28T19:44:11.202Z,100.00
2022-08-28T19:46:40.477Z,100.00
2022-08-28T19:49:09.584Z,100.00
2022-08-28T19:51:39.647Z,100.00
2022-08-28T19:54:14.425Z,100.00
2022-08-28T19:56:43.140Z,100.00
2022-08-28T19:59:11.344Z,100.00
2022-08-28T20:01:46.491Z,100.00
2022-08-28T20:04:17.828Z,100.00
2022-08-28T20:06:46.700Z,100.00
2022-08-28T20:09:17.715Z,100.00
2022-08-28T20:11:47.137Z,100.00
2022-08-28T20:14:18.606Z,100.00
2022-08-28T20:16:51.288Z,100.00
2022-08-28T20:19:20.791Z,100.00
2022-08-28T20:21:50.327Z,100.00
2022-08-28T20:24:24.527Z,100.00
2022-08-28T20:26:53.648Z,100.00
2022-08-28T20:29:24.499Z,100.00
2022-08-28T20:31:53.414Z,100.00
2022-08-28T20:34:22.159Z,100.00
2022-08-28T20:36:50.512Z,100.00
2022-08-28T20:39:20.971Z,100.00
2022-08-28T20:41:49.511Z,100.00
2022-08-28T20:44:20.395Z,100.00
2022-08-28T20:46:51.633Z,100.00
2022-08-28T20:49:22.457Z,100.00
2022-08-28T20:51:53.729Z,100.00
2022-08-28T20:54:24.404Z,100.00
2022-08-28T20:56:54.540Z,100.00
2022-08-28T20:59:22.939Z,100.00
2022-08-28T21:01:52.147Z,100.00
2022-08-28T21:04:20.574Z,100.00
2022-08-28T21:08:24.840Z,100.00
2022-08-28T21:10:36.622Z,100.00
2022-08-28T21:13:05.938Z,100.00
2022-08-28T21:15:36.430Z,100.00
2022-08-28T21:18:05.479Z,100.00
2022-08-28T21:20:33.508Z,100.00
2022-08-28T21:23:01.864Z,100.00
2022-08-28T21:25:30.362Z,100.00
2022-08-28T21:27:58.393Z,100.00
2022-08-28T21:30:32.370Z,100.00
2022-08-28T21:33:00.601Z,100.00
2022-08-28T21:35:29.200Z,100.00
2022-08-28T21:37:57.387Z,100.00
2022-08-28T21:40:25.531Z,100.00
2022-08-28T21:42:53.673Z,100.00
2022-08-28T21:45:22.691Z,100.00
2022-08-28T21:47:50.736Z,100.00
2022-08-28T21:50:20.871Z,100.00
2022-08-28T21:52:49.127Z,100.00
2022-08-28T21:55:17.611Z,100.00
2022-08-28T21:57:45.606Z,100.00
2022-08-28T22:00:23.277Z,100.00
2022-08-28T22:02:51.701Z,100.00
2022-08-28T22:05:20.596Z,100.00
2022-08-28T22:07:48.745Z,100.00
2022-08-28T22:10:16.889Z,100.00
2022-08-28T22:12:44.916Z,100.00
2022-08-28T22:15:15.445Z,100.00
2022-08-28T22:17:43.616Z,100.00
2022-08-28T22:20:12.638Z,100.00
2022-08-28T22:22:59.553Z,100.00
2022-08-28T22:25:27.908Z,100.00
2022-08-28T22:27:56.560Z,100.00
2022-08-28T22:30:25.756Z,100.00
2022-08-28T22:32:54.301Z,100.00
2022-08-28T22:35:22.590Z,100.00
2022-08-28T22:37:50.689Z,100.00
2022-08-28T22:40:19.030Z,100.00
2022-08-28T22:42:47.544Z,100.00
2022-08-28T22:45:15.917Z,100.00
2022-08-28T22:47:44.392Z,100.00
2022-08-28T22:50:12.676Z,100.00
2022-08-28T22:52:43.397Z,100.00
2022-08-28T22:55:16.490Z,100.00
2022-08-28T22:57:44.922Z,100.00
2022-08-28T23:00:20.017Z,100.00
2022-08-28T23:02:48.988Z,100.00
2022-08-28T23:05:17.973Z,100.00
2022-08-28T23:07:47.716Z,100.00
2022-08-28T23:10:16.428Z,100.00
2022-08-28T23:12:44.752Z,100.00
2022-08-28T23:15:17.488Z,100.00
2022-08-28T23:17:45.856Z,100.00
2022-08-28T23:20:22.808Z,100.00
2022-08-28T23:22:58.113Z,100.00
2022-08-28T23:25:26.818Z,100.00
2022-08-28T23:27:56.067Z,100.00
2022-08-28T23:30:25.151Z,100.00
2022-08-28T23:32:54.248Z,100.00
2022-08-28T23:35:23.238Z,100.00
2022-08-28T23:37:52.245Z,100.00
2022-08-28T23:40:24.046Z,100.00
2022-08-28T23:42:53.890Z,100.00
2022-08-28T23:45:22.462Z,100.00
2022-08-28T23:47:51.806Z,100.00
2022-08-28T23:50:23.722Z,100.00
2022-08-28T23:52:53.712Z,100.00
2022-08-28T23:55:22.715Z,100.00
2022-08-28T23:57:55.575Z,100.00
